Startpagina
METAR-TAF:

METAR-TAF

Vliegvelden :

Wolgograd, Rusland

breedte: 48-47N, lengte: 044-22E, hoogte: 145 m

Actueel weer

Dit bericht is 30 minuten geleden gemaakt, om 09:30 UTC
Wind 14 kt uit het zuidzuidoosten
Temperatuur 22°C
Vochtigheid 33%
Druk 1017 hPa
Zicht 10 km of meer
geen wolken onder 1500 m en geen cumulonimbus

METAR: URWW 230930Z 16007MPS CAVOK 22/05 Q1017 R06/010070 NOSIG

Tijdstip: 13:00 (10:00 UTC)

Verwachting

Dit bericht is 1 uur en het 55 minuten geleden gemaakt, om 08:05 UTC
Verwachting geldig van 23 om 09 UTC tot 23 om 18 UTC
Wind 12 kt uit het zuiden met uitschieters tot 21 kt
Zicht 10 km of meer
Verspreide wolken op 4000 ft
Tijdelijke
van 23 om 09 UTC tot 23 om 18 UTC
Wind 17 kt uit het zuidzuidoosten met uitschieters tot 27 kt

TAF: URWW 230805Z 2309/2318 18006G11MPS 9999 SCT040 TEMPO 2309/2318 15009G14MPS

Waarnemingen en weersverwachtingen van meer dan 4000 vliegvelden (METAR en TAF).

De beschikbare stations zijn de gele en rode punten op de kaart.

Ga met uw muis naar het station om de naam te zien.

Klik dan om waarnemingen en weersverwachtingen te zien.

kaart wijzigen: klik op de groene knoppen met een zwart kruis om in te zoomen, op de groene knop met een streepje om uit te zoomen of op de groene pijlen voor aangrenzende kaarten.


METAR-TAF: